PWSweather.com
Personal Weather Stations
Station Observations
KMICHEBO10
Cordwood Point, Lake Huron, Cheboygan, MI 49721

Cordwood Point, Lake HuronCheboygan, MI 49721

Lat: 45.663372, Lon: -84.3327789

Elevation: 598

Station Type: Davis Vantage Pro2 Wireless

https://www.lakehuronweather.org

High Low Average
Temperature 29.3°F-1.5°C 11.0°F-11.7°C 15.4°F-9.2°C
Dew Point 28.0°F-2.2°C 6.9°F-13.9°C 11.5°F-11.4°C
Winds 9.2 mph 14.8 kmh Calm Calm 5.0 mph NNW8.0 kmh NNW
Wind Gusts 16.1 mph25.9 kmh 1.2 mph1.9 kmh 8.0 mph12.9 kmh
Humidity 95% 76% 84%
Pressure 30.36 in1028.1 mb 29.70 in1005.8 mb -
Precipitation 0.00 in0.0 mm - -
Hour Temp Dew Point Humidity Winds Wind Gusts Pressure Precip Precip Rate Daily Precip Total
12:00 AM 32.1°F0.1°C 31.1°F-0.5°C 96% 1.2 mph SSW1.9 kmh SSW 3.5 mph5.6 kmh 29.66 in1004.4 mb - 0.00 in0.0 mm 1.09 in27.7 mm
12:10 AM 31.6°F-0.2°C 30.6°F-0.8°C 96% 2.3 mph N3.7 kmh N 3.5 mph5.6 kmh 29.67 in1004.7 mb - 0.00 in0.0 mm 1.09 in27.7 mm
12:20 AM 31.2°F-0.4°C 29.9°F-1.2°C 95% 1.2 mph NW1.9 kmh NW 5.8 mph9.3 kmh 29.68 in1005.1 mb - 0.00 in0.0 mm 1.09 in27.7 mm
12:30 AM 30.6°F-0.8°C 29.3°F-1.5°C 95% 1.2 mph NNW1.9 kmh NNW 2.3 mph3.7 kmh 29.69 in1005.4 mb - 0.00 in0.0 mm 1.09 in27.7 mm
12:40 AM 30.1°F-1.1°C 28.9°F-1.7°C 95% 1.2 mph NNW1.9 kmh NNW 3.5 mph5.6 kmh 29.70 in1005.8 mb - 0.00 in0.0 mm 1.09 in27.7 mm
12:50 AM 29.7°F-1.3°C 28.4°F-2.0°C 95% 1.2 mph N1.9 kmh N 2.3 mph3.7 kmh 29.70 in1005.8 mb - 0.00 in0.0 mm 1.09 in27.7 mm
01:00 AM 29.3°F-1.5°C 28.0°F-2.2°C 95% 2.3 mph N3.7 kmh N 3.5 mph5.6 kmh 29.70 in1005.8 mb - 0.00 in0.0 mm 0.00 in0.0 mm
01:10 AM 28.7°F-1.8°C 27.2°F-2.7°C 94% 2.3 mph N3.7 kmh N 3.5 mph5.6 kmh 29.70 in1005.8 mb - 0.00 in0.0 mm 0.00 in0.0 mm
01:20 AM 28.4°F-2.0°C 26.9°F-2.8°C 94% 3.5 mph N5.6 kmh N 4.6 mph7.4 kmh 29.70 in1005.8 mb - 0.00 in0.0 mm 0.00 in0.0 mm
01:30 AM 27.9°F-2.3°C 26.2°F-3.2°C 93% 2.3 mph N3.7 kmh N 4.6 mph7.4 kmh 29.71 in1006.1 mb - 0.00 in0.0 mm 0.00 in0.0 mm
01:40 AM 27.7°F-2.4°C 25.6°F-3.6°C 92% 2.3 mph N3.7 kmh N 3.5 mph5.6 kmh 29.71 in1006.1 mb - 0.00 in0.0 mm 0.00 in0.0 mm
01:50 AM 27.5°F-2.5°C 25.5°F-3.6°C 92% 2.3 mph N3.7 kmh N 2.3 mph3.7 kmh 29.72 in1006.4 mb - 0.00 in0.0 mm 0.00 in0.0 mm
02:00 AM 27.2°F-2.7°C 25.2°F-3.8°C 92% 2.3 mph N3.7 kmh N 2.3 mph3.7 kmh 29.73 in1006.8 mb - 0.00 in0.0 mm 0.00 in0.0 mm
02:10 AM 27.0°F-2.8°C 25.0°F-3.9°C 92% 1.2 mph NNW1.9 kmh NNW 5.8 mph9.3 kmh 29.73 in1006.8 mb - 0.00 in0.0 mm 0.00 in0.0 mm
02:20 AM 26.9°F-2.8°C 25.1°F-3.8°C 93% Calm Calm 1.2 mph1.9 kmh 29.74 in1007.1 mb - 0.00 in0.0 mm 0.00 in0.0 mm
02:30 AM 26.6°F-3.0°C 24.8°F-4.0°C 93% 1.2 mph N1.9 kmh N 2.3 mph3.7 kmh 29.74 in1007.1 mb - 0.00 in0.0 mm 0.00 in0.0 mm
02:40 AM 25.9°F-3.4°C 23.9°F-4.5°C 92% 2.3 mph N3.7 kmh N 5.8 mph9.3 kmh 29.75 in1007.5 mb - 0.00 in0.0 mm 0.00 in0.0 mm
02:50 AM 25.4°F-3.7°C 23.4°F-4.8°C 92% 4.6 mph N7.4 kmh N 5.8 mph9.3 kmh 29.74 in1007.1 mb - 0.00 in0.0 mm 0.00 in0.0 mm
03:00 AM 24.8°F-4.0°C 22.3°F-5.4°C 90% 4.6 mph N7.4 kmh N 6.9 mph11.1 kmh 29.76 in1007.8 mb - 0.00 in0.0 mm 0.00 in0.0 mm
03:10 AM 24.3°F-4.3°C 21.8°F-5.7°C 90% 3.5 mph N5.6 kmh N 4.6 mph7.4 kmh 29.78 in1008.5 mb - 0.00 in0.0 mm 0.00 in0.0 mm
03:20 AM 23.8°F-4.6°C 21.3°F-5.9°C 90% 4.6 mph NNW7.4 kmh NNW 6.9 mph11.1 kmh 29.79 in1008.8 mb - 0.00 in0.0 mm 0.00 in0.0 mm
03:30 AM 23.4°F-4.8°C 20.6°F-6.3°C 89% 4.6 mph N7.4 kmh N 11.5 mph18.5 kmh 29.78 in1008.5 mb - 0.00 in0.0 mm 0.00 in0.0 mm
03:40 AM 23.0°F-5.0°C 20.2°F-6.6°C 89% 4.6 mph N7.4 kmh N 6.9 mph11.1 kmh 29.79 in1008.8 mb - 0.00 in0.0 mm 0.00 in0.0 mm
03:50 AM 22.7°F-5.2°C 19.7°F-6.8°C 88% 4.6 mph N7.4 kmh N 8.1 mph13.0 kmh 29.80 in1009.1 mb - 0.00 in0.0 mm 0.00 in0.0 mm
04:00 AM 22.2°F-5.4°C 19.2°F-7.1°C 88% 2.3 mph N3.7 kmh N 3.5 mph5.6 kmh 29.80 in1009.1 mb - 0.00 in0.0 mm 0.00 in0.0 mm
04:10 AM 21.7°F-5.7°C 18.1°F-7.7°C 86% 4.6 mph N7.4 kmh N 6.9 mph11.1 kmh 29.80 in1009.1 mb - 0.00 in0.0 mm 0.00 in0.0 mm
04:20 AM 21.3°F-5.9°C 18.0°F-7.8°C 87% 3.5 mph N5.6 kmh N 5.8 mph9.3 kmh 29.81 in1009.5 mb - 0.00 in0.0 mm 0.00 in0.0 mm
04:30 AM 20.9°F-6.2°C 17.6°F-8.0°C 87% 1.2 mph N1.9 kmh N 2.3 mph3.7 kmh 29.82 in1009.8 mb - 0.00 in0.0 mm 0.00 in0.0 mm
04:40 AM 20.8°F-6.2°C 17.6°F-8.0°C 87% 2.3 mph N3.7 kmh N 3.5 mph5.6 kmh 29.84 in1010.5 mb - 0.00 in0.0 mm 0.00 in0.0 mm
04:50 AM 20.7°F-6.3°C 17.4°F-8.1°C 87% 3.5 mph N5.6 kmh N 3.5 mph5.6 kmh 29.84 in1010.5 mb - 0.00 in0.0 mm 0.00 in0.0 mm
05:00 AM 20.4°F-6.4°C 16.9°F-8.4°C 86% 2.3 mph NW3.7 kmh NW 5.8 mph9.3 kmh 29.85 in1010.8 mb - 0.00 in0.0 mm 0.00 in0.0 mm
05:10 AM 19.9°F-6.7°C 16.4°F-8.7°C 86% 2.3 mph N3.7 kmh N 3.5 mph5.6 kmh 29.85 in1010.8 mb - 0.00 in0.0 mm 0.00 in0.0 mm
05:20 AM 19.4°F-7.0°C 15.6°F-9.1°C 85% 1.2 mph N1.9 kmh N 3.5 mph5.6 kmh 29.86 in1011.2 mb - 0.00 in0.0 mm 0.00 in0.0 mm
05:30 AM 19.1°F-7.2°C 15.6°F-9.1°C 86% 2.3 mph NNW3.7 kmh NNW 5.8 mph9.3 kmh 29.87 in1011.5 mb - 0.00 in0.0 mm 0.00 in0.0 mm
05:40 AM 18.8°F-7.3°C 15.1°F-9.4°C 85% 4.6 mph N7.4 kmh N 5.8 mph9.3 kmh 29.88 in1011.9 mb - 0.00 in0.0 mm 0.00 in0.0 mm
05:50 AM 18.6°F-7.4°C 14.8°F-9.6°C 85% 4.6 mph N7.4 kmh N 5.8 mph9.3 kmh 29.88 in1011.9 mb - 0.00 in0.0 mm 0.00 in0.0 mm
06:00 AM 18.4°F-7.6°C 14.9°F-9.5°C 86% 5.8 mph N9.3 kmh N 10.4 mph16.7 kmh 29.88 in1011.9 mb - 0.00 in0.0 mm 0.00 in0.0 mm
06:10 AM 18.2°F-7.7°C 14.4°F-9.8°C 85% 4.6 mph N7.4 kmh N 4.6 mph7.4 kmh 29.88 in1011.9 mb - 0.00 in0.0 mm 0.00 in0.0 mm
06:20 AM 17.8°F-7.9°C 14.3°F-9.8°C 86% 4.6 mph N7.4 kmh N 6.9 mph11.1 kmh 29.88 in1011.9 mb - 0.00 in0.0 mm 0.00 in0.0 mm
06:40 AM 16.9°F-8.4°C 13.2°F-10.4°C 85% 4.6 mph NNW7.4 kmh NNW 8.1 mph13.0 kmh 29.90 in1012.5 mb - 0.00 in0.0 mm 0.00 in0.0 mm
06:50 AM 16.6°F-8.6°C 12.9°F-10.6°C 85% 5.8 mph N9.3 kmh N 6.9 mph11.1 kmh 29.90 in1012.5 mb - 0.00 in0.0 mm 0.00 in0.0 mm
07:00 AM 16.4°F-8.7°C 12.9°F-10.6°C 86% 3.5 mph NNW5.6 kmh NNW 11.5 mph18.5 kmh 29.90 in1012.5 mb - 0.00 in0.0 mm 0.00 in0.0 mm
07:10 AM 16.2°F-8.8°C 12.7°F-10.7°C 86% 3.5 mph N5.6 kmh N 4.6 mph7.4 kmh 29.91 in1012.9 mb - 0.00 in0.0 mm 0.00 in0.0 mm
07:20 AM 16.1°F-8.8°C 12.9°F-10.6°C 87% 4.6 mph N7.4 kmh N 5.8 mph9.3 kmh 29.91 in1012.9 mb - 0.00 in0.0 mm 0.00 in0.0 mm
07:30 AM 15.9°F-8.9°C 12.5°F-10.8°C 86% 3.5 mph N5.6 kmh N 6.9 mph11.1 kmh 29.93 in1013.5 mb - 0.00 in0.0 mm 0.00 in0.0 mm
07:40 AM 15.9°F-8.9°C 12.7°F-10.7°C 87% 5.8 mph N9.3 kmh N 11.5 mph18.5 kmh 29.93 in1013.5 mb - 0.00 in0.0 mm 0.00 in0.0 mm
07:50 AM 15.7°F-9.1°C 12.3°F-10.9°C 86% 5.8 mph N9.3 kmh N 8.1 mph13.0 kmh 29.93 in1013.5 mb - 0.00 in0.0 mm 0.00 in0.0 mm
08:00 AM 15.8°F-9.0°C 12.9°F-10.6°C 88% 6.9 mph N11.1 kmh N 12.7 mph20.4 kmh 29.95 in1014.2 mb - 0.00 in0.0 mm 0.00 in0.0 mm
08:10 AM 15.5°F-9.2°C 12.6°F-10.8°C 88% 8.1 mph N13.0 kmh N 13.8 mph22.2 kmh 29.96 in1014.6 mb - 0.00 in0.0 mm 0.00 in0.0 mm
08:20 AM 15.1°F-9.4°C 11.9°F-11.2°C 87% 8.1 mph N13.0 kmh N 13.8 mph22.2 kmh 29.97 in1014.9 mb - 0.00 in0.0 mm 0.00 in0.0 mm
08:30 AM 14.3°F-9.8°C 10.9°F-11.7°C 86% 8.1 mph NNW13.0 kmh NNW 12.7 mph20.4 kmh 29.98 in1015.2 mb - 0.00 in0.0 mm 0.00 in0.0 mm
08:40 AM 14.1°F-9.9°C 10.9°F-11.7°C 87% 8.1 mph NNW13.0 kmh NNW 10.4 mph16.7 kmh 30.00 in1015.9 mb - 0.00 in0.0 mm 0.00 in0.0 mm
08:50 AM 13.6°F-10.2°C 10.2°F-12.1°C 86% 5.8 mph N9.3 kmh N 10.4 mph16.7 kmh 30.01 in1016.3 mb - 0.00 in0.0 mm 0.00 in0.0 mm
09:00 AM 13.3°F-10.4°C 9.9°F-12.3°C 86% 6.9 mph N11.1 kmh N 16.1 mph25.9 kmh 30.03 in1016.9 mb - 0.00 in0.0 mm 0.00 in0.0 mm
09:10 AM 13.0°F-10.6°C 9.3°F-12.6°C 85% 6.9 mph N11.1 kmh N 10.4 mph16.7 kmh 30.03 in1016.9 mb - 0.00 in0.0 mm 0.00 in0.0 mm
09:20 AM 13.0°F-10.6°C 9.3°F-12.6°C 85% 6.9 mph N11.1 kmh N 15.0 mph24.1 kmh 30.02 in1016.6 mb - 0.00 in0.0 mm 0.00 in0.0 mm
09:30 AM 12.8°F-10.7°C 9.1°F-12.7°C 85% 5.8 mph N9.3 kmh N 10.4 mph16.7 kmh 30.04 in1017.3 mb - 0.00 in0.0 mm 0.00 in0.0 mm
09:40 AM 12.9°F-10.6°C 9.2°F-12.7°C 85% 6.9 mph NNW11.1 kmh NNW 11.5 mph18.5 kmh 30.04 in1017.3 mb - 0.00 in0.0 mm 0.00 in0.0 mm
09:50 AM 12.9°F-10.6°C 9.5°F-12.5°C 86% 4.6 mph N7.4 kmh N 9.2 mph14.8 kmh 30.05 in1017.6 mb - 0.00 in0.0 mm 0.00 in0.0 mm
10:00 AM 12.9°F-10.6°C 9.2°F-12.7°C 85% 6.9 mph NNW11.1 kmh NNW 10.4 mph16.7 kmh 30.06 in1017.9 mb - 0.00 in0.0 mm 0.00 in0.0 mm
10:10 AM 12.8°F-10.7°C 9.1°F-12.7°C 85% 5.8 mph N9.3 kmh N 8.1 mph13.0 kmh 30.06 in1017.9 mb - 0.00 in0.0 mm 0.00 in0.0 mm
10:20 AM 12.7°F-10.7°C 9.0°F-12.8°C 85% 5.8 mph NNW9.3 kmh NNW 8.1 mph13.0 kmh 30.07 in1018.3 mb - 0.00 in0.0 mm 0.00 in0.0 mm
10:30 AM 12.9°F-10.6°C 9.3°F-12.6°C 85% 6.9 mph NNW11.1 kmh NNW 10.4 mph16.7 kmh 30.09 in1019.0 mb - 0.00 in0.0 mm 0.00 in0.0 mm
10:40 AM 12.8°F-10.7°C 9.2°F-12.7°C 85% 5.8 mph N9.3 kmh N 5.8 mph9.3 kmh 30.11 in1019.6 mb - 0.00 in0.0 mm 0.00 in0.0 mm
10:50 AM 12.6°F-10.8°C 8.9°F-12.8°C 85% 6.9 mph NNW11.1 kmh NNW 11.5 mph18.5 kmh 30.11 in1019.6 mb - 0.00 in0.0 mm 0.00 in0.0 mm
11:00 AM 12.4°F-10.9°C 8.5°F-13.1°C 84% 9.2 mph NNW14.8 kmh NNW 16.1 mph25.9 kmh 30.11 in1019.6 mb - 0.00 in0.0 mm 0.00 in0.0 mm
11:10 AM 12.3°F-10.9°C 8.4°F-13.1°C 84% 6.9 mph NNW11.1 kmh NNW 11.5 mph18.5 kmh 30.12 in1020.0 mb - 0.00 in0.0 mm 0.00 in0.0 mm
11:20 AM 12.3°F-10.9°C 8.4°F-13.1°C 84% 5.8 mph NNW9.3 kmh NNW 10.4 mph16.7 kmh 30.13 in1020.3 mb - 0.00 in0.0 mm 0.00 in0.0 mm
11:30 AM 12.3°F-10.9°C 7.9°F-13.4°C 82% 5.8 mph N9.3 kmh N 9.2 mph14.8 kmh 30.15 in1021.0 mb - 0.00 in0.0 mm 0.00 in0.0 mm
11:40 AM 12.4°F-10.9°C 8.0°F-13.3°C 82% 5.8 mph N9.3 kmh N 5.8 mph9.3 kmh 30.16 in1021.3 mb - 0.00 in0.0 mm 0.00 in0.0 mm
11:50 AM 12.5°F-10.8°C 8.1°F-13.3°C 82% 6.9 mph N11.1 kmh N 8.1 mph13.0 kmh 30.16 in1021.3 mb - 0.00 in0.0 mm 0.00 in0.0 mm
12:00 PM 12.6°F-10.8°C 8.7°F-12.9°C 84% 5.8 mph N9.3 kmh N 13.8 mph22.2 kmh 30.16 in1021.3 mb - 0.00 in0.0 mm 0.00 in0.0 mm
12:10 PM 12.7°F-10.7°C 8.8°F-12.9°C 84% 4.6 mph N7.4 kmh N 6.9 mph11.1 kmh 30.16 in1021.3 mb - 0.00 in0.0 mm 0.00 in0.0 mm
12:20 PM 12.8°F-10.7°C 8.3°F-13.2°C 82% 6.9 mph N11.1 kmh N 12.7 mph20.4 kmh 30.17 in1021.7 mb - 0.00 in0.0 mm 0.00 in0.0 mm
12:30 PM 12.9°F-10.6°C 8.4°F-13.1°C 82% 5.8 mph N9.3 kmh N 11.5 mph18.5 kmh 30.17 in1021.7 mb - 0.00 in0.0 mm 0.00 in0.0 mm
12:40 PM 13.2°F-10.4°C 8.7°F-12.9°C 82% 8.1 mph NNW13.0 kmh NNW 10.4 mph16.7 kmh 30.17 in1021.7 mb - 0.00 in0.0 mm 0.00 in0.0 mm
12:50 PM 13.2°F-10.4°C 8.7°F-12.9°C 82% 8.1 mph NNW13.0 kmh NNW 11.5 mph18.5 kmh 30.17 in1021.7 mb - 0.00 in0.0 mm 0.00 in0.0 mm
01:00 PM 13.1°F-10.5°C 8.1°F-13.3°C 80% 6.9 mph N11.1 kmh N 11.5 mph18.5 kmh 30.18 in1022.0 mb - 0.00 in0.0 mm 0.00 in0.0 mm
01:10 PM 13.3°F-10.4°C 8.6°F-13.0°C 81% 8.1 mph N13.0 kmh N 13.8 mph22.2 kmh 30.19 in1022.4 mb - 0.00 in0.0 mm 0.00 in0.0 mm
01:20 PM 13.5°F-10.3°C 8.5°F-13.1°C 80% 5.8 mph N9.3 kmh N 10.4 mph16.7 kmh 30.18 in1022.0 mb - 0.00 in0.0 mm 0.00 in0.0 mm
01:30 PM 13.3°F-10.4°C 8.3°F-13.2°C 80% 6.9 mph N11.1 kmh N 9.2 mph14.8 kmh 30.19 in1022.4 mb - 0.00 in0.0 mm 0.00 in0.0 mm
01:40 PM 13.2°F-10.4°C 7.9°F-13.4°C 79% 8.1 mph NNW13.0 kmh NNW 11.5 mph18.5 kmh 30.19 in1022.4 mb - 0.00 in0.0 mm 0.00 in0.0 mm
01:50 PM 13.1°F-10.5°C 7.8°F-13.4°C 79% 6.9 mph N11.1 kmh N 10.4 mph16.7 kmh 30.18 in1022.0 mb - 0.00 in0.0 mm 0.00 in0.0 mm
02:00 PM 13.1°F-10.5°C 8.4°F-13.1°C 81% 5.8 mph N9.3 kmh N 10.4 mph16.7 kmh 30.19 in1022.4 mb - 0.00 in0.0 mm 0.00 in0.0 mm
02:10 PM 13.1°F-10.5°C 8.1°F-13.3°C 80% 6.9 mph NNW11.1 kmh NNW 9.2 mph14.8 kmh 30.19 in1022.4 mb - 0.00 in0.0 mm 0.00 in0.0 mm
02:20 PM 13.5°F-10.3°C 8.8°F-12.9°C 81% 6.9 mph N11.1 kmh N 15.0 mph24.1 kmh 30.19 in1022.4 mb - 0.00 in0.0 mm 0.00 in0.0 mm
02:30 PM 13.9°F-10.1°C 8.6°F-13.0°C 79% 5.8 mph N9.3 kmh N 9.2 mph14.8 kmh 30.19 in1022.4 mb - 0.00 in0.0 mm 0.00 in0.0 mm
02:40 PM 13.9°F-10.1°C 8.6°F-13.0°C 79% 4.6 mph N7.4 kmh N 5.8 mph9.3 kmh 30.19 in1022.4 mb - 0.00 in0.0 mm 0.00 in0.0 mm
02:50 PM 13.5°F-10.3°C 7.4°F-13.7°C 76% 5.8 mph NNW9.3 kmh NNW 6.9 mph11.1 kmh 30.18 in1022.0 mb - 0.00 in0.0 mm 0.00 in0.0 mm
03:00 PM 13.4°F-10.3°C 8.4°F-13.1°C 80% 6.9 mph N11.1 kmh N 13.8 mph22.2 kmh 30.18 in1022.0 mb - 0.00 in0.0 mm 0.00 in0.0 mm
03:10 PM 13.4°F-10.3°C 8.1°F-13.3°C 79% 8.1 mph NNW13.0 kmh NNW 11.5 mph18.5 kmh 30.18 in1022.0 mb - 0.00 in0.0 mm 0.00 in0.0 mm
03:20 PM 13.1°F-10.5°C 8.1°F-13.3°C 80% 8.1 mph N13.0 kmh N 13.8 mph22.2 kmh 30.18 in1022.0 mb - 0.00 in0.0 mm 0.00 in0.0 mm
03:30 PM 13.1°F-10.5°C 8.1°F-13.3°C 80% 6.9 mph N11.1 kmh N 10.4 mph16.7 kmh 30.19 in1022.4 mb - 0.00 in0.0 mm 0.00 in0.0 mm
03:40 PM 13.1°F-10.5°C 8.1°F-13.3°C 80% 5.8 mph NNW9.3 kmh NNW 9.2 mph14.8 kmh 30.20 in1022.7 mb - 0.00 in0.0 mm 0.00 in0.0 mm
03:50 PM 12.8°F-10.7°C 7.8°F-13.4°C 80% 6.9 mph N11.1 kmh N 11.5 mph18.5 kmh 30.20 in1022.7 mb - 0.00 in0.0 mm 0.00 in0.0 mm
04:00 PM 13.0°F-10.6°C 8.0°F-13.3°C 80% 5.8 mph NNW9.3 kmh NNW 8.1 mph13.0 kmh 30.20 in1022.7 mb - 0.00 in0.0 mm 0.00 in0.0 mm
04:10 PM 12.9°F-10.6°C 7.3°F-13.7°C 78% 5.8 mph N9.3 kmh N 16.1 mph25.9 kmh 30.20 in1022.7 mb - 0.00 in0.0 mm 0.00 in0.0 mm
04:20 PM 13.0°F-10.6°C 7.7°F-13.5°C 79% 4.6 mph N7.4 kmh N 6.9 mph11.1 kmh 30.21 in1023.0 mb - 0.00 in0.0 mm 0.00 in0.0 mm
04:30 PM 13.3°F-10.4°C 8.3°F-13.2°C 80% 5.8 mph N9.3 kmh N 11.5 mph18.5 kmh 30.22 in1023.4 mb - 0.00 in0.0 mm 0.00 in0.0 mm
04:40 PM 13.1°F-10.5°C 7.8°F-13.4°C 79% 5.8 mph N9.3 kmh N 9.2 mph14.8 kmh 30.23 in1023.7 mb - 0.00 in0.0 mm 0.00 in0.0 mm
04:50 PM 12.8°F-10.7°C 7.5°F-13.6°C 79% 5.8 mph N9.3 kmh N 6.9 mph11.1 kmh 30.23 in1023.7 mb - 0.00 in0.0 mm 0.00 in0.0 mm
05:00 PM 12.9°F-10.6°C 8.2°F-13.2°C 81% 6.9 mph NNW11.1 kmh NNW 9.2 mph14.8 kmh 30.24 in1024.0 mb - 0.00 in0.0 mm 0.00 in0.0 mm
05:10 PM 13.3°F-10.4°C 9.3°F-12.6°C 84% 4.6 mph N7.4 kmh N 8.1 mph13.0 kmh 30.24 in1024.0 mb - 0.00 in0.0 mm 0.00 in0.0 mm
05:20 PM 13.2°F-10.4°C 8.4°F-13.1°C 81% 4.6 mph N7.4 kmh N 9.2 mph14.8 kmh 30.24 in1024.0 mb - 0.00 in0.0 mm 0.00 in0.0 mm
05:30 PM 13.0°F-10.6°C 8.3°F-13.2°C 81% 4.6 mph N7.4 kmh N 11.5 mph18.5 kmh 30.24 in1024.0 mb - 0.00 in0.0 mm 0.00 in0.0 mm
05:40 PM 12.8°F-10.7°C 7.5°F-13.6°C 79% 8.1 mph NNW13.0 kmh NNW 10.4 mph16.7 kmh 30.25 in1024.4 mb - 0.00 in0.0 mm 0.00 in0.0 mm
05:50 PM 12.7°F-10.7°C 7.7°F-13.5°C 80% 5.8 mph NNW9.3 kmh NNW 11.5 mph18.5 kmh 30.26 in1024.7 mb - 0.00 in0.0 mm 0.00 in0.0 mm
06:00 PM 12.8°F-10.7°C 8.1°F-13.3°C 81% 8.1 mph NNW13.0 kmh NNW 11.5 mph18.5 kmh 30.27 in1025.1 mb - 0.00 in0.0 mm 0.00 in0.0 mm
06:10 PM 12.9°F-10.6°C 8.2°F-13.2°C 81% 5.8 mph N9.3 kmh N 11.5 mph18.5 kmh 30.28 in1025.4 mb - 0.00 in0.0 mm 0.00 in0.0 mm
06:20 PM 12.5°F-10.8°C 7.2°F-13.8°C 79% 3.5 mph NNW5.6 kmh NNW 8.1 mph13.0 kmh 30.29 in1025.7 mb - 0.00 in0.0 mm 0.00 in0.0 mm
06:30 PM 12.5°F-10.8°C 7.5°F-13.6°C 80% 4.6 mph NNW7.4 kmh NNW 10.4 mph16.7 kmh 30.30 in1026.1 mb - 0.00 in0.0 mm 0.00 in0.0 mm
06:40 PM 12.5°F-10.8°C 7.5°F-13.6°C 80% 4.6 mph N7.4 kmh N 8.1 mph13.0 kmh 30.30 in1026.1 mb - 0.00 in0.0 mm 0.00 in0.0 mm
06:50 PM 12.3°F-10.9°C 7.6°F-13.6°C 81% 3.5 mph N5.6 kmh N 8.1 mph13.0 kmh 30.31 in1026.4 mb - 0.00 in0.0 mm 0.00 in0.0 mm
07:00 PM 12.3°F-10.9°C 7.9°F-13.4°C 82% 3.5 mph NNW5.6 kmh NNW 4.6 mph7.4 kmh 30.30 in1026.1 mb - 0.00 in0.0 mm 0.00 in0.0 mm
07:10 PM 12.3°F-10.9°C 8.1°F-13.3°C 83% 2.3 mph N3.7 kmh N 3.5 mph5.6 kmh 30.30 in1026.1 mb - 0.00 in0.0 mm 0.00 in0.0 mm
07:20 PM 12.2°F-11.0°C 7.8°F-13.4°C 82% 4.6 mph NNW7.4 kmh NNW 5.8 mph9.3 kmh 30.29 in1025.7 mb - 0.00 in0.0 mm 0.00 in0.0 mm
07:30 PM 12.1°F-11.1°C 7.7°F-13.5°C 82% 5.8 mph NNW9.3 kmh NNW 11.5 mph18.5 kmh 30.30 in1026.1 mb - 0.00 in0.0 mm 0.00 in0.0 mm
07:40 PM 12.1°F-11.1°C 7.4°F-13.7°C 81% 2.3 mph NW3.7 kmh NW 8.1 mph13.0 kmh 30.32 in1026.8 mb - 0.00 in0.0 mm 0.00 in0.0 mm
07:50 PM 12.1°F-11.1°C 7.4°F-13.7°C 81% 4.6 mph N7.4 kmh N 8.1 mph13.0 kmh 30.34 in1027.4 mb - 0.00 in0.0 mm 0.00 in0.0 mm
08:00 PM 12.2°F-11.0°C 7.8°F-13.4°C 82% 2.3 mph N3.7 kmh N 4.6 mph7.4 kmh 30.34 in1027.4 mb - 0.00 in0.0 mm 0.00 in0.0 mm
08:10 PM 12.3°F-10.9°C 7.3°F-13.7°C 80% 3.5 mph NNW5.6 kmh NNW 6.9 mph11.1 kmh 30.34 in1027.4 mb - 0.00 in0.0 mm 0.00 in0.0 mm
08:20 PM 12.5°F-10.8°C 7.8°F-13.4°C 81% 3.5 mph NNW5.6 kmh NNW 8.1 mph13.0 kmh 30.36 in1028.1 mb - 0.00 in0.0 mm 0.00 in0.0 mm
08:30 PM 12.5°F-10.8°C 7.2°F-13.8°C 79% 2.3 mph NNW3.7 kmh NNW 5.8 mph9.3 kmh 30.35 in1027.8 mb - 0.00 in0.0 mm 0.00 in0.0 mm
08:40 PM 12.5°F-10.8°C 7.8°F-13.4°C 81% 2.3 mph N3.7 kmh N 3.5 mph5.6 kmh 30.34 in1027.4 mb - 0.00 in0.0 mm 0.00 in0.0 mm
08:50 PM 12.4°F-10.9°C 7.7°F-13.5°C 81% 3.5 mph NNW5.6 kmh NNW 5.8 mph9.3 kmh 30.34 in1027.4 mb - 0.00 in0.0 mm 0.00 in0.0 mm
09:00 PM 12.3°F-10.9°C 7.6°F-13.6°C 81% 2.3 mph NNW3.7 kmh NNW 3.5 mph5.6 kmh 30.34 in1027.4 mb - 0.00 in0.0 mm 0.00 in0.0 mm
09:10 PM 12.3°F-10.9°C 7.9°F-13.4°C 82% 2.3 mph N3.7 kmh N 5.8 mph9.3 kmh 30.34 in1027.4 mb - 0.00 in0.0 mm 0.00 in0.0 mm
09:20 PM 12.4°F-10.9°C 8.7°F-12.9°C 85% 3.5 mph N5.6 kmh N 6.9 mph11.1 kmh 30.33 in1027.1 mb - 0.00 in0.0 mm 0.00 in0.0 mm
09:30 PM 12.4°F-10.9°C 8.7°F-12.9°C 85% 2.3 mph NNW3.7 kmh NNW 2.3 mph3.7 kmh 30.33 in1027.1 mb - 0.00 in0.0 mm 0.00 in0.0 mm
09:40 PM 12.4°F-10.9°C 9.0°F-12.8°C 86% 2.3 mph N3.7 kmh N 3.5 mph5.6 kmh 30.34 in1027.4 mb - 0.00 in0.0 mm 0.00 in0.0 mm
09:50 PM 12.3°F-10.9°C 9.0°F-12.8°C 86% 1.2 mph N1.9 kmh N 2.3 mph3.7 kmh 30.34 in1027.4 mb - 0.00 in0.0 mm 0.00 in0.0 mm
10:00 PM 12.3°F-10.9°C 8.9°F-12.8°C 86% 4.6 mph N7.4 kmh N 6.9 mph11.1 kmh 30.35 in1027.8 mb - 0.00 in0.0 mm 0.00 in0.0 mm
10:10 PM 12.3°F-10.9°C 8.9°F-12.8°C 86% 1.2 mph NNW1.9 kmh NNW 2.3 mph3.7 kmh 30.35 in1027.8 mb - 0.00 in0.0 mm 0.00 in0.0 mm
10:20 PM 12.3°F-10.9°C 8.7°F-12.9°C 85% 3.5 mph NNW5.6 kmh NNW 5.8 mph9.3 kmh 30.34 in1027.4 mb - 0.00 in0.0 mm 0.00 in0.0 mm
10:30 PM 12.2°F-11.0°C 8.8°F-12.9°C 86% 2.3 mph NNW3.7 kmh NNW 4.6 mph7.4 kmh 30.35 in1027.8 mb - 0.00 in0.0 mm 0.00 in0.0 mm
10:40 PM 12.1°F-11.1°C 8.7°F-12.9°C 86% 1.2 mph NNW1.9 kmh NNW 3.5 mph5.6 kmh 30.34 in1027.4 mb - 0.00 in0.0 mm 0.00 in0.0 mm
10:50 PM 12.0°F-11.1°C 8.4°F-13.1°C 85% 4.6 mph NNW7.4 kmh NNW 6.9 mph11.1 kmh 30.34 in1027.4 mb - 0.00 in0.0 mm 0.00 in0.0 mm
11:00 PM 11.8°F-11.2°C 8.4°F-13.1°C 86% 2.3 mph N3.7 kmh N 5.8 mph9.3 kmh 30.34 in1027.4 mb - 0.00 in0.0 mm 0.00 in0.0 mm
11:10 PM 11.8°F-11.2°C 8.4°F-13.1°C 86% 2.3 mph N3.7 kmh N 3.5 mph5.6 kmh 30.34 in1027.4 mb - 0.00 in0.0 mm 0.00 in0.0 mm
11:20 PM 11.8°F-11.2°C 8.4°F-13.1°C 86% 1.2 mph N1.9 kmh N 2.3 mph3.7 kmh 30.34 in1027.4 mb - 0.00 in0.0 mm 0.00 in0.0 mm
11:30 PM 11.8°F-11.2°C 8.4°F-13.1°C 86% 3.5 mph NNW5.6 kmh NNW 6.9 mph11.1 kmh 30.33 in1027.1 mb - 0.00 in0.0 mm 0.00 in0.0 mm
11:40 PM 11.7°F-11.3°C 8.3°F-13.2°C 86% 3.5 mph NNW5.6 kmh NNW 4.6 mph7.4 kmh 30.33 in1027.1 mb - 0.00 in0.0 mm 0.00 in0.0 mm
11:50 PM 11.8°F-11.2°C 8.4°F-13.1°C 86% 3.5 mph N5.6 kmh N 9.2 mph14.8 kmh 30.33 in1027.1 mb - 0.00 in0.0 mm 0.00 in0.0 mm